Time;durP1;ratioP1;P1;durP2;ratioP2;P2;SDS_P1;SDS_P2;PMS_P1;PMS_P2;Temp;Humidity;BMP_temperature;BMP_pressure;BME280_temperature;BME280_humidity;BME280_pressure;Samples;Min_cycle;Max_cycle;Signal;HPM_P1;HPM_P2
2023/12/17 00:01:12;;;;;;;10.95;7.07;;;12.20;99.90;;;12.50;100.00;103618.75;4880605;29;20041;-71
2023/12/17 00:03:41;;;;;;;11.75;6.80;;;12.20;99.90;;;12.59;100.00;103630.56;4880946;29;20400;-72
2023/12/17 00:06:09;;;;;;;13.35;7.18;;;12.30;99.90;;;12.58;100.00;103620.78;4880530;29;20478;-70
2023/12/17 00:08:39;;;;;;;10.23;6.47;;;12.30;99.90;;;12.56;100.00;103621.63;4880549;29;20045;-71
2023/12/17 00:11:07;;;;;;;10.70;6.63;;;12.30;99.90;;;12.50;100.00;103616.09;4880440;29;20158;-72
2023/12/17 00:13:37;;;;;;;8.10;6.55;;;12.20;99.90;;;12.53;100.00;103617.09;4880292;29;20056;-74
2023/12/17 00:16:06;;;;;;;11.50;6.32;;;12.30;99.90;;;12.56;100.00;103616.31;4880141;29;20192;-71
2023/12/17 00:18:35;;;;;;;8.73;6.35;;;12.30;99.90;;;12.55;100.00;103602.13;4880526;29;20051;-72
2023/12/17 00:21:04;;;;;;;14.13;6.70;;;12.30;99.90;;;12.49;100.00;103601.00;4880249;29;20388;-72
2023/12/17 00:23:32;;;;;;;10.85;6.15;;;12.30;99.90;;;12.38;100.00;103576.78;4880346;29;20053;-72
2023/12/17 00:26:03;;;;;;;13.20;7.10;;;12.20;99.90;;;12.51;100.00;103600.22;4879030;29;20479;-71
2023/12/17 00:28:31;;;;;;;9.00;6.05;;;12.20;99.90;;;12.41;100.00;103568.00;4879129;29;20052;-72
2023/12/17 00:30:59;;;;;;;7.93;6.45;;;12.20;99.90;;;12.52;100.00;103596.69;4879981;29;20407;-71
2023/12/17 00:33:28;;;;;;;9.40;5.70;;;12.20;99.90;;;12.48;100.00;103592.16;4879929;29;20079;-72
2023/12/17 00:35:56;;;;;;;11.02;6.43;;;12.20;99.90;;;12.43;100.00;103603.47;4879985;29;20463;-71
2023/12/17 00:38:25;;;;;;;10.57;6.95;;;12.20;99.90;;;12.31;100.00;103600.44;4879675;29;20518;-72
2023/12/17 00:40:53;;;;;;;11.57;6.25;;;12.10;99.90;;;12.34;100.00;103593.47;4879630;29;20052;-70
2023/12/17 00:43:23;;;;;;;10.18;6.22;;;12.10;99.90;;;12.36;100.00;103597.09;4878627;29;20053;-70
2023/12/17 00:45:51;;;;;;;11.87;5.93;;;12.10;99.90;;;12.43;100.00;103603.47;4879579;29;20049;-70
2023/12/17 00:48:20;;;;;;;9.82;6.18;;;12.10;99.90;;;12.39;100.00;103588.28;4879526;29;20053;-70
2023/12/17 00:50:48;;;;;;;12.75;5.95;;;12.10;99.90;;;12.38;100.00;103574.16;4878589;29;20132;-70
2023/12/17 00:53:17;;;;;;;13.07;6.43;;;12.10;99.90;;;12.52;100.00;103580.75;4879795;29;20069;-70
2023/12/17 00:55:45;;;;;;;9.65;5.70;;;12.20;99.90;;;12.47;100.00;103585.03;4879685;29;20121;-70
2023/12/17 00:58:13;;;;;;;9.18;5.72;;;12.20;99.90;;;12.43;100.00;103574.25;4879973;29;20108;-69
2023/12/17 01:00:43;;;;;;;10.73;5.72;;;12.20;99.90;;;12.34;100.00;103572.25;4879759;29;20134;-69
2023/12/17 01:03:22;;;;;;;11.30;5.28;;;12.10;99.90;;;12.41;100.00;103576.88;4879423;29;20052;-70
2023/12/17 01:05:51;;;;;;;10.95;5.80;;;12.10;99.90;;;12.42;100.00;103570.72;4879293;29;20048;-70
2023/12/17 01:08:19;;;;;;;8.80;5.70;;;12.10;99.90;;;12.44;100.00;103573.44;4879548;29;20073;-71
2023/12/17 01:10:48;;;;;;;6.70;4.88;;;12.10;99.90;;;12.42;100.00;103567.16;4879343;29;20056;-69
2023/12/17 01:13:16;;;;;;;8.32;5.45;;;12.20;99.90;;;12.47;100.00;103573.50;4879381;29;20506;-69
2023/12/17 01:15:46;;;;;;;9.23;6.05;;;12.10;99.90;;;12.38;100.00;103555.56;4879237;29;20049;-69
2023/12/17 01:18:15;;;;;;;9.98;5.07;;;12.10;99.90;;;12.37;100.00;103556.41;4879217;29;20064;-69
2023/12/17 01:20:43;;;;;;;6.03;4.90;;;12.10;99.90;;;12.53;100.00;103550.72;4879270;29;20052;-69
2023/12/17 01:23:12;;;;;;;7.40;5.35;;;12.20;99.90;;;12.58;100.00;103546.44;4879281;29;20068;-70
2023/12/17 01:25:41;;;;;;;8.35;5.00;;;12.30;99.90;;;12.66;100.00;103555.53;4879317;29;20125;-69
2023/12/17 01:28:09;;;;;;;6.97;4.47;;;12.30;99.90;;;12.77;100.00;103563.84;4878320;29;20487;-69
2023/12/17 01:30:38;;;;;;;13.05;4.90;;;12.40;99.90;;;12.83;100.00;103564.03;4878998;29;20117;-69
2023/12/17 01:33:08;;;;;;;8.07;4.50;;;12.50;99.90;;;12.78;100.00;103570.94;4878973;29;20102;-72
2023/12/17 01:35:36;;;;;;;8.38;4.65;;;12.50;99.90;;;12.88;100.00;103569.44;4879208;29;20057;-71
2023/12/17 01:38:05;;;;;;;13.00;4.82;;;12.60;99.90;;;12.87;100.00;103565.91;4878987;29;20116;-69
2023/12/17 01:40:33;;;;;;;9.32;4.78;;;12.60;99.90;;;12.82;100.00;103559.56;4879025;29;20045;-70
2023/12/17 01:43:04;;;;;;;11.82;4.72;;;12.60;99.90;;;12.78;100.00;103562.06;4893291;29;20532;-69
2023/12/17 01:45:32;;;;;;;13.25;5.40;;;12.50;99.90;;;12.77;100.00;103549.66;4878547;29;20117;-73
2023/12/17 01:48:01;;;;;;;8.10;4.72;;;12.50;99.90;;;12.81;100.00;103554.19;4878934;29;20121;-69
2023/12/17 01:50:32;;;;;;;8.68;5.30;;;12.50;99.90;;;12.75;100.00;103541.66;4877567;29;20436;-70
2023/12/17 01:53:00;;;;;;;10.60;5.38;;;12.50;99.90;;;12.70;100.00;103543.25;4878731;29;20089;-69
2023/12/17 01:55:29;;;;;;;8.32;5.82;;;12.40;99.90;;;12.77;100.00;103547.00;4878572;29;20463;-70
2023/12/17 01:57:58;;;;;;;9.80;5.10;;;12.40;99.90;;;12.67;100.00;103549.38;4879038;29;20517;-69
2023/12/17 02:00:26;;;;;;;11.90;5.25;;;12.40;99.90;;;12.74;100.00;103550.44;4878439;29;20037;-70
2023/12/17 02:02:55;;;;;;;10.02;4.68;;;12.40;99.90;;;12.65;100.00;103544.88;4878393;29;20045;-70
2023/12/17 02:05:23;;;;;;;8.65;4.88;;;12.40;99.90;;;12.69;100.00;103560.97;4878743;29;20117;-70
2023/12/17 02:07:53;;;;;;;11.88;4.95;;;12.40;99.90;;;12.75;100.00;103562.88;4878346;29;20053;-69
2023/12/17 02:10:21;;;;;;;14.03;5.60;;;12.40;99.90;;;12.78;100.00;103568.28;4878344;29;20053;-69
2023/12/17 02:12:50;;;;;;;11.63;5.32;;;12.40;99.90;;;12.83;100.00;103566.69;4878283;29;20101;-69
2023/12/17 02:15:18;;;;;;;11.15;5.13;;;12.50;99.90;;;12.79;100.00;103571.84;4877168;29;20053;-70
2023/12/17 02:17:47;;;;;;;10.02;4.97;;;12.50;99.90;;;12.69;100.00;103565.38;4877453;29;20053;-70
2023/12/17 02:20:16;;;;;;;13.27;5.38;;;12.40;99.90;;;12.73;100.00;103567.25;4878573;29;20387;-69
2023/12/17 02:22:45;;;;;;;16.05;6.05;;;12.40;99.90;;;12.69;100.00;103563.63;4878046;29;20416;-69
2023/12/17 02:25:14;;;;;;;16.35;6.32;;;12.40;99.90;;;12.49;100.00;103540.84;4878667;29;20049;-73
2023/12/17 02:27:43;;;;;;;12.77;5.53;;;12.40;99.90;;;12.62;100.00;103577.53;4878120;29;20113;-69
2023/12/17 02:30:12;;;;;;;21.85;6.45;;;12.30;99.90;;;12.59;100.00;103579.22;4878192;29;20100;-70
2023/12/17 02:32:41;;;;;;;18.30;6.25;;;12.30;99.90;;;12.57;100.00;103575.59;4878287;29;20061;-74
2023/12/17 02:35:09;;;;;;;17.55;6.60;;;12.30;99.90;;;12.52;100.00;103564.81;4878247;29;20072;-69
2023/12/17 02:37:38;;;;;;;16.90;6.13;;;12.30;99.90;;;12.58;100.00;103580.06;4878331;29;20053;-74
2023/12/17 02:40:08;;;;;;;19.35;6.72;;;12.30;99.90;;;12.61;100.00;103575.75;4878007;29;20045;-73
2023/12/17 02:42:38;;;;;;;23.98;7.22;;;12.30;99.90;;;12.54;100.00;103572.88;4878044;29;20045;-71
2023/12/17 02:45:10;;;;;;;20.30;7.40;;;12.30;99.90;;;12.58;100.00;103580.06;4878007;29;20101;-69
2023/12/17 02:47:38;;;;;;;26.33;7.15;;;12.20;99.90;;;12.55;100.00;103579.97;4877986;29;20051;-69
2023/12/17 02:50:08;;;;;;;20.02;7.47;;;12.20;99.90;;;12.58;100.00;103575.66;4877977;29;20053;-70
2023/12/17 02:52:36;;;;;;;21.98;7.53;;;12.20;99.90;;;12.59;100.00;103571.25;4879897;29;20080;-69
2023/12/17 02:55:06;;;;;;;20.85;6.78;;;12.30;99.90;;;12.62;100.00;103573.97;4881545;29;20045;-70
2023/12/17 02:57:35;;;;;;;20.35;6.80;;;12.30;99.90;;;12.60;100.00;103570.41;4881945;29;20085;-69
2023/12/17 03:00:07;;;;;;;19.30;7.15;;;12.30;99.90;;;12.51;100.00;103567.44;4881482;29;20049;-69
2023/12/17 03:02:36;;;;;;;17.02;6.35;;;12.20;99.90;;;12.38;100.00;103536.97;4881491;29;20077;-70
2023/12/17 03:05:05;;;;;;;19.15;6.30;;;12.20;99.90;;;12.53;100.00;103560.44;4881309;29;20072;-70
2023/12/17 03:07:33;;;;;;;20.25;7.10;;;12.20;99.90;;;12.59;100.00;103556.22;4881144;29;20060;-70
2023/12/17 03:10:02;;;;;;;20.10;6.72;;;12.30;99.90;;;12.48;100.00;103556.75;4881421;29;20128;-70
2023/12/17 03:12:30;;;;;;;20.40;7.82;;;12.20;99.90;;;12.10;100.00;103489.19;4881180;29;20057;-70
2023/12/17 03:14:59;;;;;;;24.15;8.13;;;12.20;99.90;;;12.46;100.00;103550.47;4881579;29;20101;-70
2023/12/17 03:17:29;;;;;;;25.20;8.75;;;12.20;99.90;;;12.53;100.00;103552.47;4880983;29;20396;-70
2023/12/17 03:19:57;;;;;;;22.07;7.90;;;12.20;99.90;;;12.49;100.00;103551.47;4881342;29;20072;-70
2023/12/17 03:22:25;;;;;;;19.55;7.90;;;12.20;99.90;;;12.53;100.00;103549.81;4881659;29;20285;-70
2023/12/17 03:24:54;;;;;;;20.67;8.30;;;12.20;99.90;;;12.59;100.00;103550.00;4881220;29;20487;-70
2023/12/17 03:27:22;;;;;;;22.92;8.13;;;12.30;99.90;;;12.63;100.00;103551.91;4881156;29;20147;-70
2023/12/17 03:29:52;;;;;;;19.75;8.18;;;12.30;99.90;;;12.58;100.00;103553.53;4879636;29;20116;-70
2023/12/17 03:32:20;;;;;;;20.92;8.45;;;12.30;99.90;;;12.56;100.00;103544.59;4880960;29;20132;-73
2023/12/17 03:34:50;;;;;;;21.05;8.43;;;12.20;99.90;;;12.43;100.00;103535.34;4881209;29;20120;-70
2023/12/17 03:37:19;;;;;;;23.50;8.83;;;12.20;99.90;;;12.33;100.00;103537.69;4881298;29;20100;-70
2023/12/17 03:39:48;;;;;;;19.00;8.75;;;12.10;99.90;;;12.36;100.00;103540.44;4880932;29;20301;-70
2023/12/17 03:42:17;;;;;;;26.33;9.88;;;12.00;99.90;;;12.38;100.00;103539.63;4880867;29;20045;-70
2023/12/17 03:44:46;;;;;;;27.98;9.98;;;12.10;99.90;;;12.37;100.00;103532.50;4880851;29;20088;-70
2023/12/17 03:47:15;;;;;;;26.67;9.75;;;12.00;99.90;;;12.38;100.00;103533.41;4880702;29;20049;-69
2023/12/17 03:49:44;;;;;;;29.13;10.43;;;12.00;99.90;;;12.37;100.00;103534.25;4895116;29;20048;-70
2023/12/17 03:52:13;;;;;;;31.90;9.98;;;12.00;99.90;;;12.31;100.00;103528.78;4880796;29;20082;-70
2023/12/17 03:54:42;;;;;;;23.15;10.68;;;12.00;99.90;;;12.29;100.00;103528.72;4881075;29;20060;-69
2023/12/17 03:57:10;;;;;;;26.55;10.77;;;12.00;99.90;;;12.18;100.00;103515.97;4880807;29;20057;-70
2023/12/17 03:59:39;;;;;;;26.38;9.90;;;11.90;99.90;;;12.17;100.00;103522.13;4880586;29;20052;-70
2023/12/17 04:02:07;;;;;;;30.83;10.32;;;11.80;99.90;;;12.16;100.00;103504.38;4880681;29;20101;-70
2023/12/17 04:04:35;;;;;;;24.27;10.00;;;11.90;99.90;;;12.23;100.00;103515.25;4880845;29;20060;-70
2023/12/17 04:07:04;;;;;;;27.75;9.57;;;11.90;99.90;;;12.18;100.00;103508.00;4880356;29;20065;-72
2023/12/17 04:09:34;;;;;;;33.50;9.50;;;11.90;99.90;;;12.20;100.00;103511.59;4880383;29;20044;-70
2023/12/17 04:12:02;;;;;;;32.87;9.57;;;11.80;99.90;;;12.20;100.00;103507.19;4880491;29;20053;-70
2023/12/17 04:14:32;;;;;;;28.60;9.63;;;11.90;99.90;;;12.27;100.00;103503.00;4879254;29;20290;-70
2023/12/17 04:17:01;;;;;;;28.98;9.73;;;11.90;99.90;;;12.25;100.00;103505.56;4880272;29;20053;-70
2023/12/17 04:19:29;;;;;;;33.58;10.25;;;11.90;99.90;;;12.10;100.00;103502.44;4880128;29;20048;-70
2023/12/17 04:21:58;;;;;;;27.80;10.50;;;11.80;99.90;;;12.17;100.00;103500.91;4880165;29;20093;-70
2023/12/17 04:24:26;;;;;;;37.40;11.02;;;11.90;99.90;;;12.21;100.00;103505.47;4880158;29;20449;-70
2023/12/17 04:26:56;;;;;;;37.03;11.57;;;11.90;99.90;;;12.18;100.00;103497.38;4894570;29;20053;-70
2023/12/17 04:29:24;;;;;;;33.37;11.60;;;11.90;99.90;;;12.23;100.00;103504.63;4880022;29;20037;-70
2023/12/17 04:31:53;;;;;;;32.00;11.38;;;11.90;99.90;;;12.17;100.00;103500.91;4879904;29;20048;-70
2023/12/17 04:34:21;;;;;;;30.23;10.40;;;11.80;99.90;;;12.18;100.00;103503.59;4879789;29;20503;-70
2023/12/17 04:36:50;;;;;;;34.35;11.63;;;11.80;99.90;;;12.15;100.00;103502.59;4879837;29;20060;-69
2023/12/17 04:39:19;;;;;;;37.65;11.55;;;11.90;99.90;;;12.17;100.00;103500.91;4879781;29;20045;-70
2023/12/17 04:41:48;;;;;;;44.45;12.40;;;11.80;99.90;;;12.08;100.00;103495.31;4879764;29;20049;-70
2023/12/17 04:44:17;;;;;;;33.67;10.82;;;11.80;99.90;;;12.05;100.00;103485.50;4879735;29;20075;-70
2023/12/17 04:46:46;;;;;;;41.30;11.97;;;11.80;99.90;;;11.90;100.00;103487.66;4879877;29;20053;-70
2023/12/17 04:49:14;;;;;;;37.13;11.70;;;11.70;99.90;;;11.97;100.00;103496.72;4879603;29;20125;-70
2023/12/17 04:51:43;;;;;;;31.55;10.50;;;11.70;99.90;;;12.09;100.00;103494.44;4879803;29;20076;-70
2023/12/17 04:54:14;;;;;;;33.05;10.38;;;11.80;99.90;;;11.97;100.00;103497.63;4879907;29;20068;-70
2023/12/17 04:56:42;;;;;;;34.80;10.70;;;11.70;99.90;;;12.07;100.00;103489.09;4879551;29;20065;-70
2023/12/17 04:59:11;;;;;;;41.28;10.60;;;11.80;99.90;;;12.08;100.00;103490.00;4878127;29;20067;-70
2023/12/17 05:01:41;;;;;;;34.20;9.73;;;11.70;99.90;;;12.09;100.00;103490.06;4879325;29;20191;-70
2023/12/17 05:04:09;;;;;;;33.90;9.60;;;11.70;99.90;;;11.97;100.00;103484.34;4879846;29;20053;-70
2023/12/17 05:06:38;;;;;;;34.60;9.68;;;11.70;99.90;;;12.07;100.00;103485.53;4878953;29;20120;-69
2023/12/17 05:09:08;;;;;;;32.55;10.45;;;11.70;99.90;;;11.99;100.00;103471.13;4879111;29;20148;-70
2023/12/17 05:11:37;;;;;;;34.53;12.15;;;11.70;99.90;;;12.01;100.00;103472.06;4879287;29;20099;-70
2023/12/17 05:14:05;;;;;;;34.33;11.60;;;11.70;99.90;;;12.06;100.00;103475.78;4878836;29;20097;-71
2023/12/17 05:16:34;;;;;;;40.75;11.93;;;11.70;99.90;;;12.04;100.00;103485.47;4878897;29;20061;-75
2023/12/17 05:19:04;;;;;;;35.75;11.90;;;11.70;99.90;;;12.00;100.00;103478.25;4879289;29;20076;-71
2023/12/17 05:21:32;;;;;;;37.35;11.88;;;11.70;99.90;;;12.06;100.00;103483.75;4879455;29;20045;-71
2023/12/17 05:24:02;;;;;;;44.20;11.63;;;11.70;99.90;;;12.00;100.00;103479.13;4878857;29;20049;-71
2023/12/17 05:26:31;;;;;;;28.33;11.43;;;11.70;99.90;;;12.02;100.00;103469.47;4879007;29;20119;-71
2023/12/17 05:28:59;;;;;;;38.90;11.95;;;11.70;99.90;;;11.89;100.00;103471.69;4878740;29;20116;-71
2023/12/17 05:31:27;;;;;;;38.03;13.45;;;11.60;99.90;;;11.91;100.00;103468.25;4878807;29;20508;-71
2023/12/17 05:33:56;;;;;;;36.33;13.75;;;11.60;99.90;;;11.98;100.00;103472.00;4878814;29;20078;-71
2023/12/17 05:36:26;;;;;;;40.65;14.75;;;11.60;99.90;;;11.82;100.00;103461.75;4878752;29;20051;-71
2023/12/17 05:38:54;;;;;;;34.30;15.77;;;11.60;99.90;;;11.79;100.00;103463.44;4879152;29;20049;-72
2023/12/17 05:41:24;;;;;;;38.85;14.43;;;11.50;99.90;;;11.81;100.00;103465.25;4878614;29;20045;-72
2023/12/17 05:43:52;;;;;;;31.05;13.63;;;11.60;99.90;;;11.79;100.00;103463.44;4877543;29;20507;-71
2023/12/17 05:46:21;;;;;;;34.30;14.77;;;11.50;99.90;;;11.78;100.00;103466.06;4878650;29;20057;-72
2023/12/17 05:48:50;;;;;;;32.03;13.48;;;11.50;99.90;;;11.70;100.00;103460.50;4878987;29;20056;-72
2023/12/17 05:51:19;;;;;;;37.15;13.35;;;11.50;99.90;;;11.52;100.00;103470.47;4878495;29;20060;-72
2023/12/17 05:53:49;;;;;;;32.80;13.88;;;11.40;99.90;;;11.67;100.00;103464.81;4878514;29;20049;-72
2023/12/17 05:56:18;;;;;;;33.53;13.47;;;11.40;99.90;;;11.67;100.00;103478.94;4893026;29;20412;-73
2023/12/17 05:58:46;;;;;;;25.10;12.55;;;11.40;99.90;;;11.65;100.00;103480.66;4878778;29;20951;-71
2023/12/17 06:01:15;;;;;;;36.15;14.32;;;11.40;99.90;;;11.64;100.00;103468.22;4908714;29;20085;-72
2023/12/17 06:03:44;;;;;;;27.77;11.73;;;11.40;99.90;;;11.52;100.00;103469.53;4878415;29;20053;-71
2023/12/17 06:06:15;;;;;;;32.78;13.63;;;11.30;99.90;;;11.63;100.00;103484.09;4878738;29;20069;-72
2023/12/17 06:08:44;;;;;;;31.92;13.45;;;11.30;99.90;;;11.67;100.00;103492.19;4892702;29;20423;-71
2023/12/17 06:11:17;;;;;;;33.03;15.50;;;11.40;99.90;;;11.75;100.00;103484.50;4878487;29;20052;-71
2023/12/17 06:13:45;;;;;;;34.60;17.75;;;11.50;99.90;;;11.66;100.00;103490.41;4878659;29;20041;-71
2023/12/17 06:16:14;;;;;;;37.63;18.98;;;11.40;99.90;;;11.69;100.00;103497.59;4878573;29;20459;-71
2023/12/17 06:18:42;;;;;;;42.05;22.15;;;11.40;99.90;;;11.71;100.00;103493.22;4892732;29;20060;-71
2023/12/17 06:21:21;;;;;;;40.85;22.67;;;11.40;99.90;;;11.69;100.00;103484.31;4878607;29;20093;-71
2023/12/17 06:23:50;;;;;;;47.70;24.27;;;11.40;99.90;;;11.71;100.00;103486.16;4878478;29;20109;-71
2023/12/17 06:26:20;;;;;;;49.40;28.33;;;11.50;99.90;;;11.78;100.00;103489.91;4878562;29;20049;-71
2023/12/17 06:28:48;;;;;;;46.80;28.77;;;11.50;99.90;;;11.72;100.00;103487.97;4882255;29;20061;-71
2023/12/17 06:31:17;;;;;;;58.17;31.80;;;11.50;99.90;;;11.73;100.00;103481.81;4882401;29;20053;-72
2023/12/17 06:33:46;;;;;;;58.58;32.72;;;11.40;99.90;;;11.76;100.00;103487.22;4882270;29;20426;-71
2023/12/17 06:36:15;;;;;;;56.78;32.40;;;11.40;99.90;;;11.68;100.00;103480.75;4882458;29;20109;-73
2023/12/17 06:38:43;;;;;;;53.75;32.30;;;11.50;99.90;;;11.64;100.00;103468.22;4881974;29;20093;-71
2023/12/17 06:41:12;;;;;;;47.03;29.63;;;11.40;99.90;;;11.71;100.00;103475.56;4882269;29;20053;-71
2023/12/17 06:43:42;;;;;;;53.20;30.33;;;11.50;99.90;;;11.65;100.00;103478.00;4881924;29;20057;-72
2023/12/17 06:46:16;;;;;;;53.65;31.17;;;11.40;99.90;;;11.60;100.00;103484.88;4881830;29;20444;-73
2023/12/17 06:48:47;;;;;;;50.42;32.47;;;11.40;99.90;;;11.62;100.00;103485.81;4881930;29;20052;-71
2023/12/17 06:51:16;;;;;;;58.35;34.13;;;11.40;99.90;;;11.71;100.00;103490.59;4881680;29;20101;-72
2023/12/17 06:53:45;;;;;;;56.63;34.50;;;11.40;99.90;;;11.68;100.00;103493.13;4881891;29;20049;-71
2023/12/17 06:56:14;;;;;;;57.97;31.30;;;11.40;99.90;;;11.64;100.00;103493.81;4881545;29;20060;-71
2023/12/17 06:58:44;;;;;;;60.67;32.92;;;11.30;99.90;;;11.61;100.00;103488.44;4881443;29;20057;-71
2023/12/17 07:01:13;;;;;;;58.03;33.07;;;11.30;99.90;;;11.53;100.00;103480.22;4881564;29;20053;-71
2023/12/17 07:03:41;;;;;;;42.20;25.83;;;11.30;99.90;;;11.61;100.00;103489.31;4881776;29;20057;-71
2023/12/17 07:06:11;;;;;;;44.22;23.63;;;11.30;99.90;;;11.53;100.00;103482.88;4881408;29;20475;-70
2023/12/17 07:08:41;;;;;;;38.13;21.40;;;11.30;99.90;;;11.60;100.00;103479.56;4881115;29;20489;-71
2023/12/17 07:11:11;;;;;;;37.40;21.55;;;11.30;99.90;;;11.58;100.00;103464.47;4882135;29;20072;-72
2023/12/17 07:13:40;;;;;;;40.70;22.75;;;11.30;99.90;;;11.66;100.00;103479.81;4882702;29;20371;-73
2023/12/17 07:16:20;;;;;;;38.05;22.52;;;11.40;99.90;;;11.60;100.00;103492.81;4884945;29;20049;-72
2023/12/17 07:18:49;;;;;;;38.10;22.35;;;11.30;99.90;;;11.67;100.00;103480.72;4884365;29;20100;-73
2023/12/17 07:21:17;;;;;;;38.00;21.40;;;11.40;99.90;;;11.66;100.00;103490.41;4881165;29;20045;-75
2023/12/17 07:23:46;;;;;;;36.03;19.98;;;11.40;99.90;;;11.58;100.00;103488.31;4895625;29;20108;-74
2023/12/17 07:26:15;;;;;;;35.40;18.55;;;11.30;99.90;;;11.47;100.00;103482.66;4879945;29;20405;-71
2023/12/17 07:28:43;;;;;;;35.42;17.98;;;11.20;99.90;;;11.43;100.00;103488.72;4881034;29;20072;-72
2023/12/17 07:31:13;;;;;;;31.63;18.33;;;11.20;99.90;;;11.36;100.00;103472.56;4895298;29;20060;-73
2023/12/17 07:33:41;;;;;;;30.60;18.73;;;11.10;99.90;;;11.44;100.00;103487.84;4880934;29;20052;-74
2023/12/17 07:36:11;;;;;;;32.53;17.63;;;11.10;99.90;;;11.48;100.00;103487.09;4880729;29;20045;-74
2023/12/17 07:38:39;;;;;;;31.35;16.33;;;11.20;99.90;;;11.52;100.00;103482.81;4880246;29;20128;-74
2023/12/17 07:41:07;;;;;;;30.02;17.48;;;11.20;99.90;;;11.41;100.00;103487.75;4880709;29;20502;-74
2023/12/17 07:43:36;;;;;;;30.83;16.77;;;11.20;99.90;;;11.38;100.00;103482.34;4880682;29;20045;-74
2023/12/17 07:46:05;;;;;;;36.97;17.38;;;11.10;99.90;;;11.33;100.00;103499.84;4881124;29;20075;-75
2023/12/17 07:48:34;;;;;;;29.58;16.65;;;11.10;99.90;;;11.21;100.00;103478.22;4880462;29;20053;-73
2023/12/17 07:51:03;;;;;;;27.55;14.98;;;11.00;99.90;;;11.34;100.00;103501.63;4880966;29;20103;-73
2023/12/17 07:53:32;;;;;;;29.92;17.08;;;11.10;99.90;;;11.30;100.00;103498.84;4880524;29;20488;-73
2023/12/17 07:56:00;;;;;;;27.08;15.15;;;11.10;99.90;;;11.25;100.00;103506.63;4880549;29;20049;-74
2023/12/17 07:58:31;;;;;;;27.70;15.30;;;11.00;99.90;;;11.19;100.00;103506.41;4880419;29;20085;-74
2023/12/17 08:01:00;;;;;;;29.58;16.65;;;10.90;99.90;;;11.17;100.00;103507.22;4880411;29;20049;-74
2023/12/17 08:03:28;;;;;;;38.22;17.75;;;10.90;99.90;;;10.99;100.00;103480.97;4880503;29;20080;-74
2023/12/17 08:05:58;;;;;;;32.53;17.75;;;10.90;99.90;;;11.12;100.00;103512.34;4880362;29;20049;-74
2023/12/17 08:08:26;;;;;;;32.87;19.20;;;10.90;99.90;;;11.12;100.00;103515.00;4880354;29;20135;-74
2023/12/17 08:10:55;;;;;;;38.45;18.15;;;10.90;99.90;;;11.19;100.00;103508.16;4894623;29;20316;-74
2023/12/17 08:13:24;;;;;;;31.50;18.33;;;10.90;99.90;;;11.14;100.00;103510.66;4880306;29;20128;-73
2023/12/17 08:15:52;;;;;;;32.17;18.10;;;10.90;99.90;;;11.05;100.00;103507.69;4880301;29;20131;-74
2023/12/17 08:18:20;;;;;;;32.42;17.88;;;10.80;99.90;;;11.09;100.00;103517.50;4880041;29;20555;-74
2023/12/17 08:20:49;;;;;;;29.67;17.83;;;10.80;99.90;;;11.02;100.00;103510.19;4879947;29;20076;-70
2023/12/17 08:23:19;;;;;;;33.58;18.75;;;10.80;99.90;;;11.03;100.00;103516.41;4880368;29;20049;-70
2023/12/17 08:25:47;;;;;;;32.23;18.97;;;10.80;99.90;;;11.03;100.00;103519.97;4880491;29;20048;-71
2023/12/17 08:28:17;;;;;;;41.08;21.05;;;10.70;99.90;;;10.88;100.00;103527.31;4880338;29;20101;-70
2023/12/17 08:30:45;;;;;;;39.85;22.98;;;10.70;99.90;;;10.90;100.00;103525.63;4879884;29;20049;-71
2023/12/17 08:33:14;;;;;;;39.30;21.25;;;10.70;99.90;;;10.85;100.00;103527.22;4879803;29;20053;-73
2023/12/17 08:35:46;;;;;;;33.22;21.27;;;10.60;99.90;;;10.75;100.00;103503.91;4879852;29;20574;-73
2023/12/17 08:38:15;;;;;;;34.72;22.60;;;10.60;99.90;;;10.89;100.00;103523.84;4879897;29;20499;-72
2023/12/17 08:40:47;;;;;;;39.55;22.70;;;10.60;99.90;;;10.91;100.00;103519.50;4879882;29;20044;-71
2023/12/17 08:43:15;;;;;;;;;;;10.60;99.90;;;11.00;100.00;103516.28;4880245;29;20053;-71
2023/12/17 08:45:43;;;;;;;36.22;22.55;;;10.70;99.90;;;10.82;100.00;103503.25;4879634;29;20414;-71
2023/12/17 08:48:12;;;;;;;35.47;22.10;;;10.60;99.90;;;10.86;100.00;103521.06;4880055;29;20460;-70
2023/12/17 08:50:40;;;;;;;37.97;23.10;;;10.60;99.90;;;10.83;100.00;103499.78;4878803;29;20067;-70
2023/12/17 08:53:09;;;;;;;30.58;20.15;;;10.60;99.90;;;10.73;100.00;103508.22;4879502;29;20080;-75
2023/12/17 08:55:37;;;;;;;37.83;23.42;;;10.50;99.90;;;10.76;100.00;103509.25;4879383;29;20049;-73
2023/12/17 08:58:07;;;;;;;43.50;24.75;;;10.50;99.90;;;10.81;100.00;103512.97;4879428;29;20494;-71
2023/12/17 09:00:35;;;;;;;41.00;26.20;;;10.50;99.90;;;10.81;100.00;103514.72;4879491;29;20128;-71
2023/12/17 09:03:04;;;;;;;43.75;27.50;;;10.60;99.90;;;10.85;100.00;103516.63;4879316;29;20097;-70
2023/12/17 09:05:32;;;;;;;48.83;28.08;;;10.60;99.90;;;10.79;100.00;103519.06;4879275;29;20157;-73
2023/12/17 09:08:00;;;;;;;44.55;28.17;;;10.50;99.90;;;10.75;100.00;103512.75;4879335;29;20057;-72
2023/12/17 09:10:29;;;;;;;47.40;30.10;;;10.50;99.90;;;10.73;100.00;103530.31;4879005;29;20049;-70
2023/12/17 09:12:57;;;;;;;47.03;30.50;;;10.50;99.90;;;10.77;100.00;103526.03;4879026;29;20491;-70
2023/12/17 09:15:27;;;;;;;51.67;31.73;;;10.50;99.90;;;10.76;100.00;103519.81;4879073;29;20052;-70
2023/12/17 09:17:56;;;;;;;47.15;31.42;;;10.50;99.90;;;10.66;100.00;103516.78;4879260;29;20053;-68
2023/12/17 09:20:24;;;;;;;47.50;29.67;;;10.50;99.90;;;10.76;100.00;103529.53;4879119;29;20053;-70
2023/12/17 09:22:53;;;;;;;42.58;27.77;;;10.50;99.90;;;10.73;100.00;103532.06;4879065;29;20045;-70
2023/12/17 09:25:22;;;;;;;43.95;26.50;;;10.50;99.90;;;10.63;100.00;103525.53;4878852;29;20412;-70
2023/12/17 09:27:51;;;;;;;41.78;26.33;;;10.40;99.90;;;10.66;100.00;103533.59;4878864;29;20122;-70
2023/12/17 09:30:20;;;;;;;37.77;25.07;;;10.40;99.90;;;10.66;100.00;103522.09;4878558;29;20136;-71
2023/12/17 09:32:51;;;;;;;38.13;26.27;;;10.40;99.90;;;10.63;100.00;103527.25;4878748;29;20124;-70
2023/12/17 09:35:20;;;;;;;;;;;10.40;99.90;;;10.69;100.00;103530.13;4879209;29;20052;-69
2023/12/17 09:37:49;;;;;;;60.25;36.67;;;10.40;99.90;;;10.73;100.00;103530.31;4878568;29;19923;-70
2023/12/17 09:40:18;;;;;;;55.75;36.47;;;10.50;99.90;;;10.80;100.00;103534.13;4878560;29;20558;-72
2023/12/17 09:42:51;;;;;;;53.83;36.15;;;10.50;99.90;;;10.78;100.00;103539.31;4878520;29;20387;-70
2023/12/17 09:45:20;;;;;;;52.00;33.67;;;10.50;99.90;;;10.83;100.00;103539.50;4877311;29;20436;-71
2023/12/17 09:47:51;;;;;;;40.28;27.20;;;10.50;99.90;;;10.87;100.00;103544.06;4878330;29;20375;-71
2023/12/17 09:50:19;;;;;;;;;;;10.60;99.90;;;10.81;100.00;103525.31;4878852;29;20049;-72
2023/12/17 09:52:48;;;;;;;61.03;38.92;;;10.70;99.90;;;10.97;100.00;103538.28;4878877;29;19927;-71
2023/12/17 09:55:17;;;;;;;56.60;37.35;;;10.70;99.90;;;10.35;100.00;103434.44;4878729;29;20127;-73
2023/12/17 09:57:45;;;;;;;57.22;35.33;;;10.70;99.90;;;10.89;100.00;103539.75;4878393;29;20045;-74
2023/12/17 10:00:15;;;;;;;51.85;33.22;;;10.60;99.90;;;10.85;100.00;103536.09;4878021;29;20113;-72
2023/12/17 10:02:44;;;;;;;47.92;28.10;;;10.60;99.90;;;10.65;100.00;103530.84;4877887;29;20109;-71
2023/12/17 10:05:15;;;;;;;49.83;28.00;;;10.50;99.90;;;10.61;100.00;103531.59;4878284;29;20460;-70